Time;durP1;ratioP1;P1;durP2;ratioP2;P2;SDS_P1;SDS_P2;PMS_P1;PMS_P2;Temp;Humidity;BMP_temperature;BMP_pressure;BME280_temperature;BME280_humidity;BME280_pressure;Samples;Min_cycle;Max_cycle;Signal;HPM_P1;HPM_P2
2022/05/31 00:02:28;;;;;;;8.20;5.40;;;;;;;13.26;88.93;97285.19;109790;1252;59751;-67
2022/05/31 00:04:58;;;;;;;7.50;5.70;;;;;;;13.22;88.60;97287.58;109747;1253;59682;-68
2022/05/31 00:07:28;;;;;;;;;;;;;;;13.19;88.95;97284.34;109755;1250;71368;-68
2022/05/31 00:09:59;;;;;;;9.30;6.30;;;;;;;13.13;90.16;97285.42;109803;1251;68456;-65
2022/05/31 00:12:30;;;;;;;7.70;5.90;;;;;;;13.08;90.64;97286.52;109708;1252;68734;-66
2022/05/31 00:15:02;;;;;;;8.10;6.60;;;;;;;13.03;89.63;97291.29;109782;1251;59747;-66
2022/05/31 00:17:31;;;;;;;7.30;5.30;;;;;;;12.99;90.07;97296.32;109743;1251;59682;-67
2022/05/31 00:20:03;;;;;;;;;;;;;;;12.96;90.69;97299.92;109780;1251;70780;-65
2022/05/31 00:22:36;;;;;;;8.20;6.10;;;;;;;12.92;91.39;97297.29;109858;1253;66833;-67
2022/05/31 00:25:08;;;;;;;10.50;6.80;;;;;;;12.90;91.88;97298.39;110258;1251;68678;-67
2022/05/31 00:27:39;;;;;;;10.40;7.30;;;;;;;12.89;92.91;97302.84;109759;1251;59714;-66
2022/05/31 00:30:11;;;;;;;12.30;7.30;;;;;;;12.89;93.49;97305.77;109574;1253;59736;-68
2022/05/31 00:32:47;;;;;;;9.20;6.80;;;;;;;12.92;93.71;97311.65;109805;1250;70582;-68
2022/05/31 00:35:23;;;;;;;7.80;5.70;;;;;;;12.95;93.34;97312.98;109809;1251;68536;-67
2022/05/31 00:37:54;;;;;;;6.20;4.80;;;;;;;12.98;91.99;97313.38;109517;1253;67789;-64
2022/05/31 00:40:28;;;;;;;7.10;5.60;;;;;;;13.02;90.61;97311.85;109514;1253;59694;-68
2022/05/31 00:43:01;;;;;;;6.30;4.90;;;;;;;13.05;90.03;97313.90;109634;1253;60508;-68
2022/05/31 00:45:43;;;;;;;7.20;5.90;;;;;;;13.06;89.16;97310.49;109582;1253;70574;-67
2022/05/31 00:48:21;;;;;;;7.70;6.20;;;;;;;13.04;88.98;97313.09;109606;1252;68267;-66
2022/05/31 00:51:00;;;;;;;10.30;6.50;;;;;;;13.03;91.86;97316.85;109556;1253;68101;-66
2022/05/31 00:53:35;;;;;;;8.00;6.40;;;;;;;13.02;93.22;97315.32;109587;1253;59659;-66
2022/05/31 00:56:21;;;;;;;10.60;6.40;;;;;;;13.02;93.60;97316.10;109534;1252;59709;-67
2022/05/31 00:59:00;;;;;;;10.60;7.00;;;;;;;13.00;93.74;97314.33;109536;1253;71919;-65
2022/05/31 01:01:35;;;;;;;10.70;6.20;;;;;;;12.99;93.69;97317.03;109602;1252;68592;-68
2022/05/31 01:04:07;;;;;;;10.90;7.40;;;;;;;12.99;93.72;97319.65;109572;1253;68626;-65
2022/05/31 01:06:37;;;;;;;10.10;6.50;;;;;;;12.97;92.68;97317.66;109613;1253;59698;-67
2022/05/31 01:09:08;;;;;;;9.00;6.30;;;;;;;12.96;92.67;97319.33;109618;1253;59754;-66
2022/05/31 01:11:46;;;;;;;9.40;6.50;;;;;;;12.94;92.86;97315.48;109777;1253;71364;-67
2022/05/31 01:14:27;;;;;;;6.90;5.40;;;;;;;12.91;92.18;97315.05;110023;1252;67842;-67
2022/05/31 01:17:22;;;;;;;6.10;4.90;;;;;;;12.88;90.25;97310.80;109585;1252;68654;-68
2022/05/31 01:19:56;;;;;;;9.60;7.50;;;;;;;12.84;89.08;97307.96;109570;1252;59783;-67
2022/05/31 01:22:42;;;;;;;11.00;6.40;;;;;;;12.78;90.55;97310.20;109586;1253;59762;-68
2022/05/31 01:25:46;;;;;;;8.60;6.60;;;;;;;12.72;91.20;97309.84;109532;1253;71532;-68
2022/05/31 01:28:44;;;;;;;9.10;6.60;;;;;;;12.65;92.23;97308.69;109628;1253;68573;-67
2022/05/31 01:31:25;;;;;;;8.20;5.30;;;;;;;12.58;92.99;97303.85;109559;1253;69471;-69
2022/05/31 01:34:09;;;;;;;8.70;6.20;;;;;;;12.53;91.81;97299.02;109530;1253;60205;-67
2022/05/31 01:36:51;;;;;;;8.40;6.00;;;;;;;12.49;90.95;97303.20;109569;1253;59736;-68
2022/05/31 01:39:47;;;;;;;7.70;5.90;;;;;;;12.45;89.41;97304.23;109754;1253;70734;-68
2022/05/31 01:42:47;;;;;;;9.40;6.60;;;;;;;12.41;89.64;97303.85;109770;1251;67814;-67
2022/05/31 01:45:26;;;;;;;10.90;8.10;;;;;;;12.35;90.25;97309.19;109690;1251;68687;-67
2022/05/31 01:48:03;;;;;;;10.80;8.50;;;;;;;12.31;90.43;97306.40;109665;1253;59770;-67
2022/05/31 01:50:36;;;;;;;9.00;7.60;;;;;;;12.26;92.08;97315.04;109778;1252;59768;-68
2022/05/31 01:53:09;;;;;;;9.50;6.90;;;;;;;12.21;93.73;97322.74;109543;1253;71538;-69
2022/05/31 01:55:43;;;;;;;7.60;6.00;;;;;;;12.16;94.29;97326.81;109572;1253;67847;-66
2022/05/31 01:58:42;;;;;;;8.30;5.80;;;;;;;12.11;92.57;97329.64;109621;1253;69624;-66
2022/05/31 02:01:14;;;;;;;13.50;8.10;;;;;;;12.08;91.23;97331.30;110049;1251;59711;-66
2022/05/31 02:03:47;;;;;;;9.70;6.80;;;;;;;12.05;95.03;97334.50;109879;1251;59723;-67
2022/05/31 02:06:43;;;;;;;9.60;6.90;;;;;;;12.02;95.87;97341.09;109552;1253;71561;-66
2022/05/31 02:09:15;;;;;;;12.50;7.90;;;;;;;11.97;95.65;97341.75;109581;1253;68687;-68
2022/05/31 02:11:46;;;;;;;9.20;6.50;;;;;;;11.92;96.10;97338.01;109596;1251;69014;-68
2022/05/31 02:14:21;;;;;;;9.70;6.90;;;;;;;11.87;96.61;97339.77;109585;1253;59728;-68
2022/05/31 02:16:52;;;;;;;9.70;6.80;;;;;;;11.82;95.99;97345.75;109499;1255;60221;-67
2022/05/31 02:19:52;;;;;;;9.10;6.10;;;;;;;11.78;95.96;97352.21;109626;1253;70792;-65
2022/05/31 02:22:33;;;;;;;11.30;7.10;;;;;;;11.74;95.45;97354.62;109767;1251;67873;-68
2022/05/31 02:25:06;;;;;;;7.80;5.50;;;;;;;11.71;94.68;97357.26;109728;1251;68579;-66
2022/05/31 02:27:37;;;;;;;12.30;8.50;;;;;;;11.70;93.39;97352.44;109554;1254;59723;-66
2022/05/31 02:30:08;;;;;;;9.70;6.40;;;;;;;11.69;94.59;97354.21;109754;1252;60079;-69
2022/05/31 02:32:40;;;;;;;9.30;6.90;;;;;;;11.68;95.32;97358.04;109518;1254;71526;-68
2022/05/31 02:35:11;;;;;;;9.00;7.50;;;;;;;11.64;95.38;97351.83;109532;1253;68593;-66
2022/05/31 02:37:41;;;;;;;8.80;6.60;;;;;;;11.62;95.86;97353.38;109589;1251;69380;-68
2022/05/31 02:40:12;;;;;;;10.70;7.90;;;;;;;11.60;96.16;97357.22;109651;1253;59757;-67
2022/05/31 02:42:42;;;;;;;11.00;7.40;;;;;;;11.57;96.25;97353.98;109566;1251;59760;-66
2022/05/31 02:45:14;;;;;;;10.30;6.80;;;;;;;11.53;95.22;97351.00;109562;1253;71664;-68
2022/05/31 02:47:44;;;;;;;8.20;5.80;;;;;;;11.51;94.84;97351.31;109593;1253;67816;-66
2022/05/31 02:50:17;;;;;;;12.00;7.80;;;;;;;11.50;94.33;97353.99;110260;1251;68676;-65
2022/05/31 02:52:47;;;;;;;8.20;6.20;;;;;;;11.49;94.38;97364.39;109576;1253;59703;-68
2022/05/31 02:55:18;;;;;;;9.10;6.90;;;;;;;11.45;94.77;97369.52;109704;1251;59691;-67
2022/05/31 02:58:12;;;;;;;11.10;6.90;;;;;;;11.44;95.04;97372.27;109653;1253;69801;-66
2022/05/31 03:01:21;;;;;;;10.00;7.10;;;;;;;11.41;95.08;97378.43;109337;1253;67832;-65
2022/05/31 03:04:19;;;;;;;6.90;5.30;;;;;;;11.40;93.86;97392.30;109365;1252;68652;-65
2022/05/31 03:07:10;;;;;;;9.10;6.80;;;;;;;11.43;94.23;97393.13;109679;1251;59739;-66
2022/05/31 03:10:00;;;;;;;9.00;6.90;;;;;;;11.55;97.69;97395.52;109639;1253;59758;-67
2022/05/31 03:12:30;;;;;;;8.80;6.30;;;;;;;11.58;96.95;97397.86;109715;1252;71626;-66
2022/05/31 03:15:10;;;;;;;10.40;7.60;;;;;;;11.63;96.15;97404.65;109775;1252;68855;-68
2022/05/31 03:17:49;;;;;;;12.20;8.50;;;;;;;11.67;96.36;97408.84;109709;1253;68682;-67
2022/05/31 03:20:24;;;;;;;11.40;7.70;;;;;;;11.74;96.91;97406.61;109575;1253;59703;-66
2022/05/31 03:23:04;;;;;;;12.10;7.70;;;;;;;11.79;96.67;97413.19;109715;1252;60065;-67
2022/05/31 03:25:34;;;;;;;8.10;6.00;;;;;;;11.81;95.64;97413.41;109754;1252;69661;-67
2022/05/31 03:28:05;;;;;;;7.50;5.50;;;;;;;11.86;95.19;97417.58;109775;1251;68585;-67
2022/05/31 03:30:37;;;;;;;7.60;5.70;;;;;;;11.91;94.79;97412.09;109755;1252;69417;-68
2022/05/31 03:33:09;;;;;;;6.40;5.20;;;;;;;11.96;94.11;97407.49;109508;1253;60136;-68
2022/05/31 03:35:41;;;;;;;6.10;5.00;;;;;;;12.04;93.06;97406.73;109528;1253;59747;-67
2022/05/31 03:38:17;;;;;;;7.40;5.80;;;;;;;12.10;92.08;97406.95;110142;1251;70753;-65
2022/05/31 03:40:57;;;;;;;10.20;7.00;;;;;;;12.18;92.76;97406.96;109997;1251;67773;-68
2022/05/31 03:43:32;;;;;;;6.90;5.20;;;;;;;12.29;93.66;97410.34;109711;1252;69362;-67
2022/05/31 03:46:23;;;;;;;9.80;6.70;;;;;;;12.38;93.84;97407.86;109771;1251;59704;-69
2022/05/31 03:49:15;;;;;;;8.20;6.20;;;;;;;12.47;93.20;97406.67;109367;1253;59677;-67
2022/05/31 03:51:49;;;;;;;7.20;5.90;;;;;;;12.57;92.94;97405.11;109533;1253;72319;-67
2022/05/31 03:54:27;;;;;;;7.40;5.40;;;;;;;12.68;92.59;97407.54;109843;1251;67873;-68
2022/05/31 03:57:07;;;;;;;10.10;7.80;;;;;;;12.81;92.61;97408.94;109774;1253;68625;-68
2022/05/31 03:59:39;;;;;;;9.80;7.90;;;;;;;12.92;92.61;97409.78;109535;1250;59612;-69
2022/05/31 04:02:08;;;;;;;10.10;6.90;;;;;;;13.03;91.84;97418.02;109759;1252;59714;-66
2022/05/31 04:04:39;;;;;;;9.60;7.30;;;;;;;13.11;91.32;97423.23;109518;1253;71973;-67
2022/05/31 04:07:09;;;;;;;9.90;6.90;;;;;;;13.18;91.16;97423.86;109559;1253;67880;-66
2022/05/31 04:09:39;;;;;;;7.70;5.80;;;;;;;13.27;90.74;97428.98;109539;1253;69402;-67
2022/05/31 04:12:10;;;;;;;8.40;6.70;;;;;;;13.37;90.67;97435.11;109580;1253;59722;-68
2022/05/31 04:15:00;;;;;;;11.40;7.40;;;;;;;13.47;90.21;97444.79;109734;1251;59748;-68
2022/05/31 04:17:31;;;;;;;9.70;7.10;;;;;;;13.58;89.96;97450.36;109520;1253;70835;-68
2022/05/31 04:20:01;;;;;;;11.40;7.80;;;;;;;13.69;89.76;97449.71;109776;1252;68449;-67
2022/05/31 04:22:32;;;;;;;;;;;;;;;13.76;89.49;97451.42;109759;1251;69380;-67
2022/05/31 04:25:22;;;;;;;8.80;6.00;;;;;;;13.80;89.74;97452.89;109695;1251;59765;-71
2022/05/31 04:28:17;;;;;;;9.20;5.60;;;;;;;13.92;89.66;97451.13;110122;1251;59731;-67
2022/05/31 04:31:06;;;;;;;7.50;5.70;;;;;;;14.09;89.56;97443.53;109780;1253;70768;-67
2022/05/31 04:34:14;;;;;;;7.90;6.20;;;;;;;14.29;88.89;97443.67;109323;1255;67610;-67
2022/05/31 04:36:44;;;;;;;7.90;6.40;;;;;;;14.44;88.39;97444.16;109238;1256;68479;-69
2022/05/31 04:39:13;;;;;;;9.20;6.70;;;;;;;14.58;87.27;97439.80;109459;1253;59685;-68
2022/05/31 04:41:46;;;;;;;9.20;7.10;;;;;;;14.71;85.70;97437.08;109568;1253;59689;-67
2022/05/31 04:44:23;;;;;;;7.70;5.80;;;;;;;14.83;85.23;97440.35;109764;1251;69755;-67
2022/05/31 04:46:53;;;;;;;7.50;6.30;;;;;;;14.96;84.98;97446.23;109552;1253;67938;-68
2022/05/31 04:49:36;;;;;;;7.80;5.70;;;;;;;15.14;85.13;97447.52;109534;1252;69434;-66
2022/05/31 04:52:06;;;;;;;9.90;6.50;;;;;;;15.26;84.06;97448.17;109377;1253;59656;-66
2022/05/31 04:54:43;;;;;;;9.10;6.70;;;;;;;15.39;83.72;97451.93;109531;1253;59686;-65
2022/05/31 04:57:24;;;;;;;9.20;6.60;;;;;;;15.44;82.98;97453.45;109702;1251;70802;-65
2022/05/31 04:59:54;;;;;;;8.30;6.10;;;;;;;15.49;83.08;97457.69;109715;1253;68038;-66
2022/05/31 05:02:24;;;;;;;6.40;5.30;;;;;;;15.57;82.98;97451.15;109544;1253;69306;-67
2022/05/31 05:05:02;;;;;;;11.60;6.80;;;;;;;15.80;83.16;97452.94;109769;1253;59777;-67
2022/05/31 05:07:41;;;;;;;;;;;;;;;15.94;82.12;97453.04;109660;1252;59735;-68
2022/05/31 05:10:11;;;;;;;10.50;6.50;;;;;;;15.86;81.68;97453.39;109792;1250;71524;-67
2022/05/31 05:12:53;;;;;;;7.70;5.90;;;;;;;15.92;81.40;97454.25;109715;1252;67831;-67
2022/05/31 05:15:47;;;;;;;10.70;6.20;;;;;;;15.96;81.18;97456.52;110208;1253;68645;-67
2022/05/31 05:18:17;;;;;;;;;;;;;;;16.03;80.39;97459.05;109651;1252;59754;-67
2022/05/31 05:20:48;;;;;;;7.90;6.00;;;;;;;16.21;79.82;97459.09;109525;1253;59685;-67
2022/05/31 05:23:18;;;;;;;7.00;6.30;;;;;;;16.47;80.06;97457.09;109566;1253;71600;-67
2022/05/31 05:25:54;;;;;;;7.20;5.40;;;;;;;16.64;78.45;97454.06;109494;1253;68597;-65
2022/05/31 05:31:43;;;;;;;9.10;5.30;;;;;;;17.31;78.13;97458.42;109601;1251;59748;-68
2022/05/31 05:34:31;;;;;;;10.60;5.50;;;;;;;17.54;75.95;97459.46;109697;1253;59693;-66
2022/05/31 05:37:05;;;;;;;8.50;6.70;;;;;;;17.58;74.65;97461.40;109577;1253;71697;-66
2022/05/31 05:39:35;;;;;;;11.00;7.80;;;;;;;17.58;72.98;97460.02;109626;1253;67969;-67
2022/05/31 05:42:35;;;;;;;8.50;7.40;;;;;;;17.50;73.42;97465.00;109489;1254;68625;-66
2022/05/31 05:45:12;;;;;;;8.80;6.60;;;;;;;17.57;74.19;97469.20;109764;1251;59761;-67
2022/05/31 05:47:42;;;;;;;9.00;6.30;;;;;;;17.72;74.54;97472.83;109668;1253;59661;-66
2022/05/31 05:50:12;;;;;;;11.40;8.20;;;;;;;17.93;74.24;97469.88;109509;1253;71441;-66
2022/05/31 05:53:07;;;;;;;9.60;8.10;;;;;;;18.07;72.94;97473.36;109689;1251;67735;-64
2022/05/31 05:55:56;;;;;;;10.50;7.40;;;;;;;18.04;71.97;97471.72;109554;1252;68642;-66
2022/05/31 05:58:44;;;;;;;11.30;8.70;;;;;;;17.95;72.37;97472.86;109734;1251;59717;-68
2022/05/31 06:01:58;;;;;;;9.60;8.00;;;;;;;18.20;72.41;97477.13;109281;1257;59703;-66
2022/05/31 06:05:20;;;;;;;11.50;8.60;;;;;;;18.39;71.87;97475.77;109555;1256;70765;-69
2022/05/31 06:07:55;;;;;;;10.60;8.30;;;;;;;18.47;70.54;97477.89;109456;1253;67804;-66
2022/05/31 06:10:37;;;;;;;10.30;8.20;;;;;;;18.45;70.00;97477.95;109576;1253;68838;-66
2022/05/31 06:13:15;;;;;;;8.70;6.70;;;;;;;18.66;69.64;97475.75;109672;1253;59699;-67
2022/05/31 06:15:50;;;;;;;10.20;7.80;;;;;;;19.08;69.26;97473.94;109562;1253;59699;-67
2022/05/31 06:18:24;;;;;;;9.40;8.30;;;;;;;19.31;67.20;97473.08;109567;1253;71363;-66
2022/05/31 06:21:00;;;;;;;7.20;6.40;;;;;;;19.51;66.57;97467.89;109466;1254;69182;-67
2022/05/31 06:23:30;;;;;;;9.70;7.70;;;;;;;19.82;64.40;97466.65;109545;1251;68674;-66
2022/05/31 06:26:01;;;;;;;13.20;8.00;;;;;;;20.10;62.73;97464.99;109557;1254;59762;-66
2022/05/31 06:28:30;;;;;;;10.40;8.50;;;;;;;20.26;62.45;97467.10;108915;1252;974024;-67
2022/05/31 06:31:00;;;;;;;11.60;8.10;;;;;;;20.40;62.12;97464.98;109468;1253;70648;-66
2022/05/31 06:33:30;;;;;;;9.00;7.40;;;;;;;20.43;61.01;97469.67;109621;1253;68626;-68
2022/05/31 06:36:01;;;;;;;;;;;;;;;20.74;60.87;97468.99;109707;1253;69498;-68
2022/05/31 06:38:31;;;;;;;9.80;7.50;;;;;;;21.08;60.04;97468.30;109744;1253;59695;-68
2022/05/31 06:41:02;;;;;;;9.30;7.50;;;;;;;21.42;59.10;97464.58;109628;1253;59750;-67
2022/05/31 06:44:01;;;;;;;8.20;7.00;;;;;;;21.82;59.96;97470.29;109324;1253;71729;-68
2022/05/31 06:46:48;;;;;;;7.80;5.40;;;;;;;22.30;55.81;97473.02;109828;1253;67976;-66
2022/05/31 06:49:39;;;;;;;10.20;7.90;;;;;;;22.79;57.09;97476.48;109545;1254;69549;-67
2022/05/31 06:58:39;;;;;;;9.90;7.00;;;;;;;23.34;54.12;97460.61;109385;1253;72210;-68
2022/05/31 07:01:09;;;;;;;9.30;8.30;;;;;;;23.23;53.13;97464.84;109536;1253;68601;-67
2022/05/31 07:03:39;;;;;;;10.30;7.80;;;;;;;22.58;53.53;97470.32;109568;1253;69542;-68
2022/05/31 07:06:08;;;;;;;9.70;7.00;;;;;;;22.69;54.62;97470.70;109532;1253;59747;-65
2022/05/31 07:08:38;;;;;;;8.40;7.50;;;;;;;23.10;55.18;97467.46;109716;1252;59690;-67
2022/05/31 07:11:28;;;;;;;9.00;7.40;;;;;;;23.49;53.60;97465.95;109642;1253;70793;-67
2022/05/31 07:14:15;;;;;;;10.10;7.60;;;;;;;23.63;53.69;97464.48;109669;1251;68767;-67
2022/05/31 07:17:09;;;;;;;9.50;8.30;;;;;;;23.70;53.06;97461.43;109766;1251;69429;-67
2022/05/31 07:19:44;;;;;;;10.50;8.10;;;;;;;23.67;52.91;97463.50;109775;1253;59689;-67
2022/05/31 07:22:35;;;;;;;12.20;10.00;;;;;;;23.96;52.71;97461.54;109810;1253;59685;-67
2022/05/31 07:25:27;;;;;;;10.70;9.10;;;;;;;23.87;52.01;97461.10;109738;1253;71628;-67
2022/05/31 07:28:05;;;;;;;8.90;8.00;;;;;;;24.13;52.71;97462.56;109783;1252;68733;-68
2022/05/31 07:30:34;;;;;;;8.50;7.10;;;;;;;24.57;53.09;97457.61;109776;1251;69435;-68
2022/05/31 07:33:05;;;;;;;8.00;7.20;;;;;;;24.77;50.72;97460.90;109823;1253;59729;-67
2022/05/31 07:35:56;;;;;;;8.10;6.60;;;;;;;24.77;50.33;97462.30;109457;1253;59722;-69
2022/05/31 07:38:26;;;;;;;10.10;7.60;;;;;;;24.74;50.42;97462.03;110090;1253;70434;-70
2022/05/31 07:40:56;;;;;;;10.50;7.40;;;;;;;24.42;50.65;97463.89;110133;1253;66824;-71
2022/05/31 07:43:25;;;;;;;8.80;6.20;;;;;;;24.65;51.18;97465.58;109655;1253;68525;-71
2022/05/31 07:46:05;;;;;;;8.40;6.90;;;;;;;24.85;49.92;97465.86;109636;1253;59787;-71
2022/05/31 07:48:36;;;;;;;7.50;6.70;;;;;;;25.20;49.52;97462.12;109771;1253;59733;-69
2022/05/31 07:51:18;;;;;;;7.20;6.10;;;;;;;25.47;48.57;97460.30;109696;1253;71780;-73
2022/05/31 07:54:19;;;;;;;7.80;5.70;;;;;;;25.60;47.56;97462.27;109838;1252;68560;-71
2022/05/31 07:57:07;;;;;;;7.70;5.60;;;;;;;25.76;47.84;97465.30;109792;1253;69526;-69
2022/05/31 07:59:59;;;;;;;7.40;5.60;;;;;;;25.82;46.89;97463.63;109781;1252;59699;-68
2022/05/31 08:02:50;;;;;;;8.30;6.30;;;;;;;26.14;45.62;97468.04;109687;1253;59768;-70
2022/05/31 08:05:19;;;;;;;;;;;;;;;26.16;45.79;97471.81;109915;1253;71630;-70
2022/05/31 08:07:49;;;;;;;6.20;4.90;;;;;;;26.41;45.03;97478.04;109827;1253;68717;-69
2022/05/31 08:10:20;;;;;;;5.50;4.90;;;;;;;26.58;44.41;97479.77;109641;1253;69690;-70
2022/05/31 08:12:49;;;;;;;6.10;4.30;;;;;;;27.32;44.14;97478.60;109753;1251;59793;-69
2022/05/31 08:15:18;;;;;;;6.70;5.70;;;;;;;27.80;42.28;97479.32;109795;1251;59761;-68
2022/05/31 08:17:47;;;;;;;8.00;5.80;;;;;;;27.95;41.92;97476.48;109682;1253;70838;-70
2022/05/31 08:20:17;;;;;;;5.50;4.40;;;;;;;27.62;41.92;97478.94;109886;1253;67676;-69
2022/05/31 08:22:46;;;;;;;7.30;3.50;;;;;;;28.04;42.50;97475.25;109783;1253;68765;-68
2022/05/31 08:25:16;;;;;;;5.00;3.10;;;;;;;28.13;41.75;97475.70;109801;1253;59690;-70
2022/05/31 08:27:46;;;;;;;6.30;4.40;;;;;;;28.09;41.48;97469.73;110443;1251;59175;-69
2022/05/31 08:30:15;;;;;;;5.10;3.90;;;;;;;28.11;40.85;97475.52;109624;1251;70410;-69
2022/05/31 08:32:44;;;;;;;6.10;3.30;;;;;;;27.58;41.13;97472.84;109782;1251;67824;-71
2022/05/31 08:35:13;;;;;;;7.60;4.80;;;;;;;27.88;41.63;97469.67;109832;1252;69526;-71
2022/05/31 08:37:41;;;;;;;;;;;;;;;28.05;41.50;97468.46;109834;1253;59726;-70
2022/05/31 08:40:11;;;;;;;;;;;;;;;28.24;41.71;97468.23;109804;1253;59682;-71
2022/05/31 08:42:56;;;;;;;5.50;4.50;;;;;;;28.57;40.39;97463.38;109543;1253;71376;-72
2022/05/31 08:45:52;;;;;;;7.00;5.20;;;;;;;28.80;39.49;97464.09;109802;1253;68489;-71
2022/05/31 08:48:56;;;;;;;6.40;4.00;;;;;;;28.46;41.40;97466.81;109643;1251;69569;-73
2022/05/31 08:51:53;;;;;;;5.90;4.70;;;;;;;28.64;41.31;97467.18;109455;1253;59765;-71
2022/05/31 08:57:45;;;;;;;5.90;3.80;;;;;;;28.82;39.00;97467.27;109791;1252;71645;-72
2022/05/31 09:00:26;;;;;;;5.30;3.90;;;;;;;29.08;37.83;97466.38;109684;1254;67830;-71
2022/05/31 09:03:09;;;;;;;5.60;4.70;;;;;;;29.67;38.07;97464.10;109779;1253;69397;-71
2022/05/31 09:06:08;;;;;;;7.00;4.80;;;;;;;29.72;36.46;97465.19;109798;1253;59665;-71
2022/05/31 09:08:44;;;;;;;5.20;3.60;;;;;;;29.04;36.38;97469.46;109833;1252;59695;-72
2022/05/31 09:11:39;;;;;;;3.80;3.40;;;;;;;28.23;39.38;97466.79;109835;1251;71580;-73
2022/05/31 09:14:16;;;;;;;;;;;;;;;27.71;41.18;97467.36;109769;1254;68194;-71
2022/05/31 09:16:57;;;;;;;4.60;4.10;;;;;;;27.05;41.50;97468.70;110193;1251;67708;-73
2022/05/31 09:19:36;;;;;;;5.40;3.80;;;;;;;27.03;42.16;97474.20;109578;1254;59736;-69
2022/05/31 09:22:07;;;;;;;5.40;3.50;;;;;;;27.60;40.69;97468.86;109711;1251;59673;-71
2022/05/31 09:24:42;;;;;;;6.20;4.50;;;;;;;28.15;39.85;97468.45;109818;1251;71556;-71
2022/05/31 09:27:18;;;;;;;4.00;3.60;;;;;;;28.61;39.45;97470.59;109637;1254;68726;-70
2022/05/31 09:29:56;;;;;;;4.50;3.40;;;;;;;29.12;37.38;97478.08;109504;1254;68750;-69
2022/05/31 09:32:52;;;;;;;4.00;2.90;;;;;;;29.09;38.60;97479.77;109723;1253;59732;-72
2022/05/31 09:35:40;;;;;;;6.00;3.40;;;;;;;28.93;38.82;97474.96;109848;1251;59742;-71
2022/05/31 09:38:28;;;;;;;4.60;3.90;;;;;;;28.56;39.51;97474.89;109754;1254;70770;-71
2022/05/31 09:41:16;;;;;;;7.50;4.40;;;;;;;28.26;39.47;97471.81;109568;1254;69970;-69
2022/05/31 09:43:45;;;;;;;5.20;3.50;;;;;;;27.63;40.11;97476.77;109639;1252;68885;-71
2022/05/31 09:46:31;;;;;;;4.80;3.30;;;;;;;27.30;40.13;97477.15;109660;1254;59774;-70
2022/05/31 09:49:36;;;;;;;4.80;3.90;;;;;;;27.17;40.94;97477.13;109505;1254;59712;-71
2022/05/31 09:52:35;;;;;;;4.70;3.80;;;;;;;26.79;40.74;97476.98;109769;1253;70896;-71
2022/05/31 09:58:42;;;;;;;5.40;3.80;;;;;;;27.16;40.44;97473.02;109610;1251;68462;-70
2022/05/31 10:01:27;;;;;;;5.30;3.80;;;;;;;27.55;40.03;97470.38;109814;1252;60118;-71
2022/05/31 10:04:29;;;;;;;5.10;4.50;;;;;;;27.85;40.07;97466.30;110342;1251;60183;-71
2022/05/31 10:07:03;;;;;;;4.70;3.50;;;;;;;27.88;38.95;97463.77;109851;1253;71646;-69
2022/05/31 10:09:43;;;;;;;5.60;3.20;;;;;;;27.69;39.62;97461.50;109895;1251;67918;-69
2022/05/31 10:12:18;;;;;;;4.60;3.50;;;;;;;27.36;41.04;97460.98;109494;1254;68787;-72
2022/05/31 10:14:50;;;;;;;4.40;3.70;;;;;;;27.33;39.93;97456.98;109785;1254;59756;-71
2022/05/31 10:17:40;;;;;;;4.10;3.10;;;;;;;27.50;39.97;97462.86;109922;1251;59706;-71
2022/05/31 10:20:16;;;;;;;5.20;3.40;;;;;;;27.88;39.09;97462.40;109677;1251;70587;-70
2022/05/31 10:23:06;;;;;;;5.00;4.00;;;;;;;27.95;37.95;97458.67;109859;1251;68902;-71
2022/05/31 10:25:59;;;;;;;6.00;3.80;;;;;;;27.85;39.63;97453.05;109461;1254;70927;-71
2022/05/31 10:28:58;;;;;;;5.80;4.20;;;;;;;28.06;40.06;97448.81;109795;1251;59723;-72
2022/05/31 10:32:25;;;;;;;5.00;3.20;;;;;;;27.95;39.23;97443.46;108978;1260;59849;-69
2022/05/31 10:35:19;;;;;;;6.00;3.40;;;;;;;28.30;39.46;97444.49;109717;1253;71577;-71
2022/05/31 10:37:59;;;;;;;4.00;3.10;;;;;;;28.45;38.86;97442.75;109515;1254;68619;-70
2022/05/31 10:40:47;;;;;;;3.80;2.80;;;;;;;28.85;38.25;97436.19;109802;1251;69368;-70
2022/05/31 10:43:38;;;;;;;3.00;2.70;;;;;;;28.80;36.50;97430.91;109922;1251;60046;-69
2022/05/31 10:46:24;;;;;;;3.60;2.80;;;;;;;28.42;37.03;97429.58;109887;1251;59755;-70
2022/05/31 10:48:55;;;;;;;4.40;3.00;;;;;;;28.80;37.41;97430.73;109830;1251;71631;-71
2022/05/31 10:51:27;;;;;;;4.40;3.30;;;;;;;29.09;37.06;97425.67;110473;1251;69208;-71
2022/05/31 10:54:33;;;;;;;4.40;3.10;;;;;;;29.46;37.25;97424.39;109858;1251;69022;-70
2022/05/31 10:57:23;;;;;;;4.40;2.70;;;;;;;29.54;37.10;97424.19;109759;1252;59685;-69
2022/05/31 10:59:54;;;;;;;4.10;3.00;;;;;;;29.51;35.07;97419.85;109866;1251;59711;-71
2022/05/31 11:02:44;;;;;;;7.60;3.60;;;;;;;28.85;35.48;97415.29;109886;1251;70941;-68
2022/05/31 11:05:16;;;;;;;4.10;3.20;;;;;;;29.02;35.41;97408.41;109769;1251;68696;-71
2022/05/31 11:11:29;;;;;;;3.90;2.80;;;;;;;29.23;36.70;97404.09;109357;1257;59771;-71
2022/05/31 11:14:23;;;;;;;5.50;3.80;;;;;;;29.35;36.41;97401.23;109421;1257;59661;-70
2022/05/31 11:17:18;;;;;;;3.70;3.10;;;;;;;29.28;36.81;97400.11;109374;1257;71593;-70
2022/05/31 11:20:03;;;;;;;5.20;3.30;;;;;;;29.34;37.29;97403.55;109384;1257;68711;-71
2022/05/31 11:22:36;;;;;;;4.30;3.10;;;;;;;29.10;36.28;97401.83;109360;1257;69546;-69
2022/05/31 11:25:30;;;;;;;4.40;2.90;;;;;;;28.69;36.05;97402.26;109375;1257;59804;-69
2022/05/31 11:28:07;;;;;;;4.40;3.50;;;;;;;28.40;37.33;97396.41;109341;1257;59766;-71
2022/05/31 11:30:54;;;;;;;4.40;3.00;;;;;;;28.24;37.95;97396.36;109368;1257;72212;-72
2022/05/31 11:33:49;;;;;;;4.30;3.30;;;;;;;28.14;37.84;97395.48;109345;1257;67903;-70
2022/05/31 11:36:43;;;;;;;3.20;2.70;;;;;;;28.17;38.10;97389.17;109368;1257;68645;-72
2022/05/31 11:39:27;;;;;;;3.70;3.10;;;;;;;28.34;38.26;97382.42;109899;1257;59759;-71
2022/05/31 11:42:11;;;;;;;4.70;3.30;;;;;;;28.07;36.82;97377.66;109430;1257;59876;-71
2022/05/31 11:45:12;;;;;;;4.10;2.80;;;;;;;27.62;36.89;97375.73;109289;1254;71465;-70
2022/05/31 11:47:47;;;;;;;4.00;3.00;;;;;;;27.35;37.22;97372.72;109614;1251;68649;-72
2022/05/31 11:50:22;;;;;;;5.40;3.10;;;;;;;27.29;36.86;97374.48;109723;1251;68633;-70
2022/05/31 11:53:35;;;;;;;5.30;3.20;;;;;;;27.10;36.97;97370.48;109887;1251;59706;-70
2022/05/31 11:56:26;;;;;;;3.70;2.10;;;;;;;27.07;38.51;97369.39;109666;1251;59729;-69
2022/05/31 11:59:07;;;;;;;4.70;2.60;;;;;;;27.13;36.94;97373.37;109570;1254;70839;-70
2022/05/31 12:01:43;;;;;;;3.90;2.80;;;;;;;27.03;37.78;97373.35;109775;1251;67849;-71
2022/05/31 12:04:38;;;;;;;3.50;2.80;;;;;;;26.66;36.84;97377.39;109770;1251;67654;-70
2022/05/31 12:07:18;;;;;;;4.50;2.50;;;;;;;26.74;37.41;97369.84;109670;1251;59810;-70
2022/05/31 12:09:56;;;;;;;3.20;2.50;;;;;;;26.80;38.44;97364.58;109720;1251;59647;-70
2022/05/31 12:12:31;;;;;;;2.90;2.50;;;;;;;26.75;38.74;97369.38;109563;1251;72177;-69
2022/05/31 12:15:21;;;;;;;3.50;2.30;;;;;;;26.97;38.11;97367.81;109623;1254;68689;-70
2022/05/31 12:18:06;;;;;;;4.30;2.60;;;;;;;27.07;38.15;97371.98;109944;1251;68672;-72
2022/05/31 12:20:52;;;;;;;2.70;2.20;;;;;;;27.27;37.54;97370.21;109731;1253;59823;-72
2022/05/31 12:23:45;;;;;;;4.20;2.60;;;;;;;27.72;37.82;97372.17;109986;1251;59727;-69
2022/05/31 12:26:37;;;;;;;4.30;2.50;;;;;;;27.82;35.40;97368.79;110278;1251;72245;-70
2022/05/31 12:29:06;;;;;;;3.20;2.60;;;;;;;27.98;35.76;97366.56;109858;1251;67703;-70
2022/05/31 12:31:38;;;;;;;3.70;2.90;;;;;;;27.92;35.79;97369.36;109787;1251;68709;-70
2022/05/31 12:34:13;;;;;;;4.50;2.70;;;;;;;27.67;36.10;97368.59;109697;1251;60139;-71
2022/05/31 12:36:56;;;;;;;4.10;2.50;;;;;;;27.78;37.10;97373.46;109870;1251;59732;-71
2022/05/31 12:39:33;;;;;;;3.70;2.80;;;;;;;27.47;36.31;97375.66;109878;1251;71401;-71
2022/05/31 12:42:14;;;;;;;4.50;2.70;;;;;;;27.59;35.85;97373.86;109861;1251;68638;-68
2022/05/31 12:44:46;;;;;;;3.60;2.50;;;;;;;27.60;37.33;97377.66;109850;1251;67474;-70
2022/05/31 12:47:29;;;;;;;3.90;2.70;;;;;;;27.48;37.44;97369.45;109733;1251;59749;-70